旭川空港の過去48時間の天気

旭川空港 (Asahikawa (Civil))

現在時刻: 10/20 03:40 JST (10/19 18:40 UTC) 以下の時間は現地時間です。

過去48時間のMETAR気象情報
時間 風向 風速(m/s) 視程 気温(℃) 湿度(%) 気圧(hPa) 天気現象
19 20:00 3 10km以上 4 87 1019
19 19:00 3 10km以上 5 87 1019
19 18:00 3 10km以上 5 81 1019
19 17:00 東南東 2 10km以上 7 76 1019
19 16:00 不定 1 10km以上 11 62 1019
19 15:00 2 10km以上 12 54 1019
19 14:00 不定 1 10km以上 13 54 1019
19 13:00 不定 1 10km以上 12 58 1020
19 12:00 北東 2 10km以上 11 58 1020
19 11:00 北西 2 10km以上 10 76 1021
19 10:00 2 10km以上 8 71 1022
19 09:00 2 10km以上 6 81 1022
19 08:00 南南西 2 8000m 2 100 1022 散在した霧
19 07:00 2 8000m 0 93 1022 散在した霧
19 06:40 3 8000m -1 100 1022 散在した霧
18 20:00 3 10km以上 3 93 1020
18 19:00 2 10km以上 5 81 1019
18 18:00 不定 1 10km以上 4 81 1019
18 17:00 西北西 2 10km以上 7 70 1018
18 16:00 西 3 10km以上 9 62 1017
18 15:00 西北西 4 10km以上 10 58 1016
18 14:00 西北西 4 10km以上 10 54 1016
18 13:00 西北西 4 10km以上 10 66 1015 周辺でしゅう雨
18 12:00 北西 4 10km以上 10 71 1015 周辺でしゅう雨
18 11:00 2 10km以上 9 71 1015 周辺でしゅう雨
18 10:00 2 10km以上 8 81 1015 弱いしゅう雨
18 09:00 不定 1 10km以上 8 81 1015 弱いしゅう雨
18 08:00 東南東 1 10km以上 7 93 1015 弱いしゅう雨
18 07:00 2 10km以上 6 93 1014
18 06:40 北東 3 8000m 6 93 1014 弱いしゅう雨
RJEC 191100Z 17005KT 9999 FEW005 04/02 Q1019
RJEC 191000Z 19006KT 9999 FEW005 05/03 Q1019
RJEC 190900Z 19005KT 9999 FEW003 05/02 Q1019
RJEC 190800Z 12003KT 9999 FEW005 07/03 Q1019
RJEC 190700Z VRB01KT 9999 FEW040 11/04 Q1019
RJEC 190600Z 36003KT 310V030 9999 FEW040 12/03 Q1019
RJEC 190500Z VRB02KT 9999 FEW040 13/04 Q1019
RJEC 190400Z VRB02KT 9999 FEW040 12/04 Q1020
RJEC 190300Z 05003KT 340V110 9999 FEW040 11/03 Q1020
RJEC 190200Z 32003KT 210V010 9999 FEW030 10/06 Q1021
RJEC 190100Z 19003KT 060V230 9999 FEW002 08/03 Q1022
RJEC 190000Z 17004KT 9999 FEW002 06/03 Q1022
RJEC 182300Z 21003KT 170V250 8000 BCFG FEW001 02/02 Q1022
RJEC 182200Z 17004KT 8000 BCFG FEW001 M00/M01 Q1022
RJEC 182140Z 18005KT 8000 BCFG FEW001 M01/M01 Q1022 RMK 2ST001 A3019
RJEC 181100Z 18005KT 9999 FEW005 03/02 Q1020
RJEC 181000Z 17003KT 9999 FEW030 BKN050 05/02 Q1019
RJEC 180900Z VRB02KT 9999 FEW030 SCT050 04/01 Q1019
RJEC 180800Z 30003KT 9999 FEW030 SCT050 07/02 Q1018
RJEC 180700Z 28006KT 9999 FEW030 09/02 Q1017
RJEC 180600Z 29008KT 260V320 9999 FEW020 SCT040 10/02 Q1016
RJEC 180500Z 29008KT 9999 FEW015 SCT035 BKN060 10/01 Q1016
RJEC 180400Z 30007KT 260V350 9999 VCSH FEW015 SCT035 BKN060 10/04 Q1015
RJEC 180300Z 31008KT 280V340 9999 VCSH FEW010 SCT020 BKN040 10/05 Q1015
RJEC 180200Z 36004KT 310V050 9999 VCSH FEW008 SCT020 BKN035 09/04 Q1015
RJEC 180100Z 35004KT 320V030 9999 -SHRA FEW005 SCT018 BKN030 08/05 Q1015
RJEC 180000Z VRB02KT 9999 -SHRA FEW003 SCT015 BKN025 08/05 Q1015
RJEC 172300Z 12002KT 9999 -SHRA FEW002 SCT012 BKN020 07/06 Q1015
RJEC 172200Z 08003KT 9999 FEW002 SCT015 BKN030 06/05 Q1014
RJEC 172140Z 04005KT 8000 -SHRA FEW002 SCT012 BKN025 06/05 Q1014 RMK 1ST002 3ST012 6CU025 A2995